sensor_id;sensor_type;location;lat;lon;timestamp;P1;durP1;ratioP1;P2;durP2;ratioP2
40367;SDS011;26075;43.320;21.920;2022-11-20T00:07:35;32.63;;;25.77;;
40367;SDS011;26075;43.320;21.920;2022-11-20T00:12:42;34.78;;;26.75;;
40367;SDS011;26075;43.320;21.920;2022-11-20T00:17:43;35.10;;;26.67;;
40367;SDS011;26075;43.320;21.920;2022-11-20T00:22:44;33.65;;;25.42;;
40367;SDS011;26075;43.320;21.920;2022-11-20T00:27:45;29.15;;;24.33;;
40367;SDS011;26075;43.320;21.920;2022-11-20T00:38:44;35.75;;;27.50;;
40367;SDS011;26075;43.320;21.920;2022-11-20T00:43:45;36.80;;;29.15;;
40367;SDS011;26075;43.320;21.920;2022-11-20T00:48:46;39.90;;;29.30;;
40367;SDS011;26075;43.320;21.920;2022-11-20T00:53:47;35.42;;;28.48;;
40367;SDS011;26075;43.320;21.920;2022-11-20T00:58:49;34.20;;;27.33;;
40367;SDS011;26075;43.320;21.920;2022-11-20T01:03:51;35.78;;;27.23;;
40367;SDS011;26075;43.320;21.920;2022-11-20T01:08:53;34.05;;;25.35;;
40367;SDS011;26075;43.320;21.920;2022-11-20T01:19:51;32.38;;;25.27;;
40367;SDS011;26075;43.320;21.920;2022-11-20T01:24:52;29.77;;;23.92;;
40367;SDS011;26075;43.320;21.920;2022-11-20T01:29:53;31.63;;;23.90;;
40367;SDS011;26075;43.320;21.920;2022-11-20T01:34:54;29.67;;;22.30;;
40367;SDS011;26075;43.320;21.920;2022-11-20T01:39:55;27.13;;;21.92;;
40367;SDS011;26075;43.320;21.920;2022-11-20T01:44:57;29.02;;;22.25;;
40367;SDS011;26075;43.320;21.920;2022-11-20T01:50:02;28.88;;;21.98;;
40367;SDS011;26075;43.320;21.920;2022-11-20T01:55:08;30.75;;;23.45;;
40367;SDS011;26075;43.320;21.920;2022-11-20T02:00:11;30.63;;;22.48;;
40367;SDS011;26075;43.320;21.920;2022-11-20T02:05:16;33.47;;;22.48;;
40367;SDS011;26075;43.320;21.920;2022-11-20T02:10:18;29.55;;;24.17;;
40367;SDS011;26075;43.320;21.920;2022-11-20T02:15:19;31.58;;;25.98;;
40367;SDS011;26075;43.320;21.920;2022-11-20T02:20:20;30.55;;;25.15;;
40367;SDS011;26075;43.320;21.920;2022-11-20T02:25:21;30.80;;;25.10;;
40367;SDS011;26075;43.320;21.920;2022-11-20T02:30:24;25.92;;;22.33;;
40367;SDS011;26075;43.320;21.920;2022-11-20T02:46:22;28.15;;;22.73;;
40367;SDS011;26075;43.320;21.920;2022-11-20T02:51:24;29.38;;;22.65;;
40367;SDS011;26075;43.320;21.920;2022-11-20T02:56:25;25.65;;;21.05;;
40367;SDS011;26075;43.320;21.920;2022-11-20T03:07:05;23.55;;;17.73;;
40367;SDS011;26075;43.320;21.920;2022-11-20T03:12:06;22.27;;;17.05;;
40367;SDS011;26075;43.320;21.920;2022-11-20T03:17:07;26.27;;;20.08;;
40367;SDS011;26075;43.320;21.920;2022-11-20T03:22:08;31.65;;;22.08;;
40367;SDS011;26075;43.320;21.920;2022-11-20T03:27:09;28.73;;;21.85;;
40367;SDS011;26075;43.320;21.920;2022-11-20T03:32:10;30.20;;;22.15;;
40367;SDS011;26075;43.320;21.920;2022-11-20T03:37:11;30.73;;;23.30;;
40367;SDS011;26075;43.320;21.920;2022-11-20T03:42:12;33.80;;;25.25;;
40367;SDS011;26075;43.320;21.920;2022-11-20T03:47:32;32.50;;;23.50;;
40367;SDS011;26075;43.320;21.920;2022-11-20T03:52:33;22.60;;;15.07;;
40367;SDS011;26075;43.320;21.920;2022-11-20T03:57:34;18.48;;;12.73;;
40367;SDS011;26075;43.320;21.920;2022-11-20T04:02:35;18.67;;;12.52;;
40367;SDS011;26075;43.320;21.920;2022-11-20T04:07:36;19.75;;;12.18;;
40367;SDS011;26075;43.320;21.920;2022-11-20T04:12:37;18.95;;;13.10;;
40367;SDS011;26075;43.320;21.920;2022-11-20T04:17:38;19.38;;;13.30;;
40367;SDS011;26075;43.320;21.920;2022-11-20T04:28:24;19.80;;;14.00;;
40367;SDS011;26075;43.320;21.920;2022-11-20T04:33:25;16.52;;;11.38;;
40367;SDS011;26075;43.320;21.920;2022-11-20T04:38:27;12.77;;;9.05;;
40367;SDS011;26075;43.320;21.920;2022-11-20T04:43:28;9.15;;;5.50;;
40367;SDS011;26075;43.320;21.920;2022-11-20T04:48:29;8.60;;;3.83;;
40367;SDS011;26075;43.320;21.920;2022-11-20T04:59:27;4.75;;;2.80;;
40367;SDS011;26075;43.320;21.920;2022-11-20T05:04:28;6.15;;;2.50;;
40367;SDS011;26075;43.320;21.920;2022-11-20T05:09:29;4.75;;;2.40;;
40367;SDS011;26075;43.320;21.920;2022-11-20T05:14:32;2.75;;;1.38;;
40367;SDS011;26075;43.320;21.920;2022-11-20T05:19:33;3.47;;;1.58;;
40367;SDS011;26075;43.320;21.920;2022-11-20T05:24:34;4.93;;;1.75;;
40367;SDS011;26075;43.320;21.920;2022-11-20T05:29:35;4.60;;;2.45;;
40367;SDS011;26075;43.320;21.920;2022-11-20T05:34:36;3.97;;;2.08;;
40367;SDS011;26075;43.320;21.920;2022-11-20T05:39:37;6.07;;;2.83;;
40367;SDS011;26075;43.320;21.920;2022-11-20T05:44:38;5.75;;;2.92;;
40367;SDS011;26075;43.320;21.920;2022-11-20T05:49:39;6.43;;;3.50;;
40367;SDS011;26075;43.320;21.920;2022-11-20T05:54:40;7.65;;;3.92;;
40367;SDS011;26075;43.320;21.920;2022-11-20T05:59:41;14.82;;;4.60;;
40367;SDS011;26075;43.320;21.920;2022-11-20T06:04:42;6.30;;;3.65;;
40367;SDS011;26075;43.320;21.920;2022-11-20T06:09:44;6.13;;;3.88;;
40367;SDS011;26075;43.320;21.920;2022-11-20T06:14:45;7.15;;;3.88;;
40367;SDS011;26075;43.320;21.920;2022-11-20T06:19:46;6.75;;;3.70;;
40367;SDS011;26075;43.320;21.920;2022-11-20T06:24:47;6.05;;;3.85;;
40367;SDS011;26075;43.320;21.920;2022-11-20T06:29:48;9.27;;;4.60;;
40367;SDS011;26075;43.320;21.920;2022-11-20T06:34:49;9.40;;;6.00;;
40367;SDS011;26075;43.320;21.920;2022-11-20T06:45:51;11.68;;;6.70;;
40367;SDS011;26075;43.320;21.920;2022-11-20T06:56:30;9.82;;;6.47;;
40367;SDS011;26075;43.320;21.920;2022-11-20T07:01:31;10.35;;;6.65;;
40367;SDS011;26075;43.320;21.920;2022-11-20T07:06:32;9.93;;;5.70;;
40367;SDS011;26075;43.320;21.920;2022-11-20T07:17:43;8.02;;;4.20;;
40367;SDS011;26075;43.320;21.920;2022-11-20T07:28:43;11.55;;;5.82;;
40367;SDS011;26075;43.320;21.920;2022-11-20T07:33:45;9.48;;;7.05;;
40367;SDS011;26075;43.320;21.920;2022-11-20T07:38:46;11.70;;;7.05;;
40367;SDS011;26075;43.320;21.920;2022-11-20T07:49:43;18.70;;;12.60;;
40367;SDS011;26075;43.320;21.920;2022-11-20T07:54:44;17.65;;;13.77;;
40367;SDS011;26075;43.320;21.920;2022-11-20T07:59:45;19.85;;;13.30;;
40367;SDS011;26075;43.320;21.920;2022-11-20T08:04:46;21.08;;;16.48;;
40367;SDS011;26075;43.320;21.920;2022-11-20T08:09:47;24.85;;;18.58;;
40367;SDS011;26075;43.320;21.920;2022-11-20T08:14:48;25.42;;;18.85;;
40367;SDS011;26075;43.320;21.920;2022-11-20T08:19:49;20.85;;;15.35;;
40367;SDS011;26075;43.320;21.920;2022-11-20T08:24:50;20.95;;;15.70;;
40367;SDS011;26075;43.320;21.920;2022-11-20T08:29:51;21.33;;;11.18;;
40367;SDS011;26075;43.320;21.920;2022-11-20T08:40:49;20.00;;;10.38;;
40367;SDS011;26075;43.320;21.920;2022-11-20T08:46:09;24.83;;;11.07;;
40367;SDS011;26075;43.320;21.920;2022-11-20T08:56:41;18.15;;;9.85;;
40367;SDS011;26075;43.320;21.920;2022-11-20T09:07:39;18.42;;;11.30;;
40367;SDS011;26075;43.320;21.920;2022-11-20T09:12:41;19.52;;;11.23;;
40367;SDS011;26075;43.320;21.920;2022-11-20T09:17:42;24.20;;;13.32;;
40367;SDS011;26075;43.320;21.920;2022-11-20T09:28:11;17.95;;;11.82;;
40367;SDS011;26075;43.320;21.920;2022-11-20T09:38:58;16.35;;;10.30;;
40367;SDS011;26075;43.320;21.920;2022-11-20T09:55:00;22.77;;;12.40;;
40367;SDS011;26075;43.320;21.920;2022-11-20T10:05:58;19.48;;;13.70;;
40367;SDS011;26075;43.320;21.920;2022-11-20T10:33:12;23.83;;;15.88;;
40367;SDS011;26075;43.320;21.920;2022-11-20T10:43:23;22.23;;;17.00;;
40367;SDS011;26075;43.320;21.920;2022-11-20T10:48:27;20.92;;;15.32;;
40367;SDS011;26075;43.320;21.920;2022-11-20T11:03:45;17.67;;;13.98;;
40367;SDS011;26075;43.320;21.920;2022-11-20T11:08:47;16.92;;;13.00;;
40367;SDS011;26075;43.320;21.920;2022-11-20T11:13:50;18.60;;;14.25;;
40367;SDS011;26075;43.320;21.920;2022-11-20T11:19:07;19.17;;;14.60;;
40367;SDS011;26075;43.320;21.920;2022-11-20T11:24:28;21.73;;;16.75;;
40367;SDS011;26075;43.320;21.920;2022-11-20T11:35:27;22.95;;;18.33;;
40367;SDS011;26075;43.320;21.920;2022-11-20T11:40:28;24.65;;;19.58;;
40367;SDS011;26075;43.320;21.920;2022-11-20T11:45:31;27.45;;;21.48;;
40367;SDS011;26075;43.320;21.920;2022-11-20T11:50:32;28.67;;;22.02;;
40367;SDS011;26075;43.320;21.920;2022-11-20T12:01:44;28.48;;;21.35;;
40367;SDS011;26075;43.320;21.920;2022-11-20T12:12:32;25.65;;;19.85;;
40367;SDS011;26075;43.320;21.920;2022-11-20T12:33:27;31.80;;;23.27;;
40367;SDS011;26075;43.320;21.920;2022-11-20T13:21:38;23.42;;;17.52;;
40367;SDS011;26075;43.320;21.920;2022-11-20T13:32:30;20.90;;;15.70;;
40367;SDS011;26075;43.320;21.920;2022-11-20T13:37:33;21.35;;;16.00;;
40367;SDS011;26075;43.320;21.920;2022-11-20T13:48:19;20.85;;;15.90;;
40367;SDS011;26075;43.320;21.920;2022-11-20T13:53:46;25.58;;;17.48;;
40367;SDS011;26075;43.320;21.920;2022-11-20T14:04:42;25.33;;;18.50;;
40367;SDS011;26075;43.320;21.920;2022-11-20T14:09:54;26.38;;;18.92;;
40367;SDS011;26075;43.320;21.920;2022-11-20T14:15:22;25.45;;;19.80;;
40367;SDS011;26075;43.320;21.920;2022-11-20T14:20:27;29.45;;;20.58;;
40367;SDS011;26075;43.320;21.920;2022-11-20T14:31:27;24.83;;;18.13;;
40367;SDS011;26075;43.320;21.920;2022-11-20T14:36:29;25.65;;;17.13;;
40367;SDS011;26075;43.320;21.920;2022-11-20T14:41:30;23.77;;;16.67;;
40367;SDS011;26075;43.320;21.920;2022-11-20T14:46:32;21.92;;;16.23;;
40367;SDS011;26075;43.320;21.920;2022-11-20T15:02:19;18.77;;;13.40;;
40367;SDS011;26075;43.320;21.920;2022-11-20T15:13:06;16.67;;;12.43;;
40367;SDS011;26075;43.320;21.920;2022-11-20T15:24:08;16.17;;;10.88;;
40367;SDS011;26075;43.320;21.920;2022-11-20T15:29:14;15.95;;;10.25;;
40367;SDS011;26075;43.320;21.920;2022-11-20T15:34:18;15.07;;;9.52;;
40367;SDS011;26075;43.320;21.920;2022-11-20T15:39:19;15.77;;;10.57;;
40367;SDS011;26075;43.320;21.920;2022-11-20T15:44:20;15.80;;;9.18;;
40367;SDS011;26075;43.320;21.920;2022-11-20T15:49:21;13.95;;;9.43;;
40367;SDS011;26075;43.320;21.920;2022-11-20T15:54:23;14.32;;;8.95;;
40367;SDS011;26075;43.320;21.920;2022-11-20T16:05:03;13.98;;;10.07;;
40367;SDS011;26075;43.320;21.920;2022-11-20T16:10:05;13.20;;;8.68;;
40367;SDS011;26075;43.320;21.920;2022-11-20T16:20:38;15.48;;;9.00;;
40367;SDS011;26075;43.320;21.920;2022-11-20T16:42:33;11.40;;;7.15;;
40367;SDS011;26075;43.320;21.920;2022-11-20T16:47:34;13.02;;;7.57;;
40367;SDS011;26075;43.320;21.920;2022-11-20T16:52:35;11.65;;;7.82;;
40367;SDS011;26075;43.320;21.920;2022-11-20T17:03:33;12.50;;;8.57;;
40367;SDS011;26075;43.320;21.920;2022-11-20T17:08:34;13.80;;;9.23;;
40367;SDS011;26075;43.320;21.920;2022-11-20T17:13:35;12.88;;;8.88;;
40367;SDS011;26075;43.320;21.920;2022-11-20T17:24:33;13.98;;;8.85;;
40367;SDS011;26075;43.320;21.920;2022-11-20T17:29:34;14.40;;;8.43;;
40367;SDS011;26075;43.320;21.920;2022-11-20T17:34:35;15.55;;;9.48;;
40367;SDS011;26075;43.320;21.920;2022-11-20T17:39:36;16.70;;;9.60;;
40367;SDS011;26075;43.320;21.920;2022-11-20T17:44:39;16.33;;;10.15;;
40367;SDS011;26075;43.320;21.920;2022-11-20T17:49:41;13.77;;;9.27;;
40367;SDS011;26075;43.320;21.920;2022-11-20T17:54:42;14.70;;;9.68;;
40367;SDS011;26075;43.320;21.920;2022-11-20T18:11:22;20.63;;;10.38;;
40367;SDS011;26075;43.320;21.920;2022-11-20T18:22:02;17.67;;;12.90;;
40367;SDS011;26075;43.320;21.920;2022-11-20T18:27:19;18.67;;;13.27;;
40367;SDS011;26075;43.320;21.920;2022-11-20T18:32:20;18.77;;;12.27;;
40367;SDS011;26075;43.320;21.920;2022-11-20T18:37:22;16.35;;;12.40;;
40367;SDS011;26075;43.320;21.920;2022-11-20T18:42:23;16.38;;;11.13;;
40367;SDS011;26075;43.320;21.920;2022-11-20T18:47:42;14.90;;;10.07;;
40367;SDS011;26075;43.320;21.920;2022-11-20T18:58:40;13.73;;;8.82;;
40367;SDS011;26075;43.320;21.920;2022-11-20T19:03:41;9.70;;;7.82;;
40367;SDS011;26075;43.320;21.920;2022-11-20T19:08:42;13.88;;;8.65;;
40367;SDS011;26075;43.320;21.920;2022-11-20T19:13:44;11.43;;;7.80;;
40367;SDS011;26075;43.320;21.920;2022-11-20T19:18:45;12.50;;;6.68;;
40367;SDS011;26075;43.320;21.920;2022-11-20T19:23:47;11.45;;;6.72;;
40367;SDS011;26075;43.320;21.920;2022-11-20T19:34:45;11.20;;;6.40;;
40367;SDS011;26075;43.320;21.920;2022-11-20T19:39:47;9.27;;;4.97;;
40367;SDS011;26075;43.320;21.920;2022-11-20T19:44:48;6.68;;;4.65;;
40367;SDS011;26075;43.320;21.920;2022-11-20T19:49:49;5.65;;;3.67;;
40367;SDS011;26075;43.320;21.920;2022-11-20T20:12:13;5.20;;;2.83;;
40367;SDS011;26075;43.320;21.920;2022-11-20T20:17:14;5.07;;;3.00;;
40367;SDS011;26075;43.320;21.920;2022-11-20T20:22:15;6.90;;;3.97;;
40367;SDS011;26075;43.320;21.920;2022-11-20T20:27:17;6.18;;;3.20;;
40367;SDS011;26075;43.320;21.920;2022-11-20T20:37:43;9.40;;;3.63;;
40367;SDS011;26075;43.320;21.920;2022-11-20T20:42:44;7.85;;;3.55;;
40367;SDS011;26075;43.320;21.920;2022-11-20T20:47:45;10.73;;;3.75;;
40367;SDS011;26075;43.320;21.920;2022-11-20T20:52:46;6.75;;;3.17;;
40367;SDS011;26075;43.320;21.920;2022-11-20T21:03:44;4.82;;;2.53;;
40367;SDS011;26075;43.320;21.920;2022-11-20T21:08:45;7.50;;;3.15;;
40367;SDS011;26075;43.320;21.920;2022-11-20T21:13:47;6.70;;;3.88;;
40367;SDS011;26075;43.320;21.920;2022-11-20T21:24:45;5.78;;;3.92;;
40367;SDS011;26075;43.320;21.920;2022-11-20T21:29:46;7.00;;;4.30;;
40367;SDS011;26075;43.320;21.920;2022-11-20T21:34:47;5.70;;;3.47;;
40367;SDS011;26075;43.320;21.920;2022-11-20T21:39:48;5.97;;;3.30;;
40367;SDS011;26075;43.320;21.920;2022-11-20T21:44:50;7.18;;;3.08;;
40367;SDS011;26075;43.320;21.920;2022-11-20T21:49:51;6.78;;;3.70;;
40367;SDS011;26075;43.320;21.920;2022-11-20T21:59:57;4.17;;;2.43;;
40367;SDS011;26075;43.320;21.920;2022-11-20T22:04:58;4.78;;;2.95;;
40367;SDS011;26075;43.320;21.920;2022-11-20T22:09:59;5.03;;;2.42;;
40367;SDS011;26075;43.320;21.920;2022-11-20T22:21:01;4.25;;;2.30;;
40367;SDS011;26075;43.320;21.920;2022-11-20T22:42:01;3.97;;;2.15;;
40367;SDS011;26075;43.320;21.920;2022-11-20T22:47:02;4.53;;;2.65;;
40367;SDS011;26075;43.320;21.920;2022-11-20T22:52:03;4.10;;;2.38;;
40367;SDS011;26075;43.320;21.920;2022-11-20T22:57:05;6.45;;;2.42;;
40367;SDS011;26075;43.320;21.920;2022-11-20T23:02:06;5.18;;;2.92;;
40367;SDS011;26075;43.320;21.920;2022-11-20T23:18:05;3.83;;;1.80;;
40367;SDS011;26075;43.320;21.920;2022-11-20T23:23:06;2.90;;;1.40;;
40367;SDS011;26075;43.320;21.920;2022-11-20T23:28:07;3.58;;;1.67;;
40367;SDS011;26075;43.320;21.920;2022-11-20T23:33:08;4.35;;;2.10;;
40367;SDS011;26075;43.320;21.920;2022-11-20T23:38:09;4.65;;;2.47;;
40367;SDS011;26075;43.320;21.920;2022-11-20T23:43:10;5.47;;;2.65;;
40367;SDS011;26075;43.320;21.920;2022-11-20T23:48:14;5.47;;;3.03;;
40367;SDS011;26075;43.320;21.920;2022-11-20T23:53:20;3.63;;;2.00;;
